Time;durP1;ratioP1;P1;durP2;ratioP2;P2;SDS_P1;SDS_P2;PMS_P1;PMS_P2;Temp;Humidity;BMP_temperature;BMP_pressure;BME280_temperature;BME280_humidity;BME280_pressure;Samples;Min_cycle;Max_cycle;Signal;HPM_P1;HPM_P2
2022/08/19 00:03:10;;;;;;;10.45;9.45;;;;;;;;;;10477318;28;20229;-71
2022/08/19 00:08:11;;;;;;;11.85;9.82;;;;;;;;;;10454538;28;20213;-71
2022/08/19 00:13:13;;;;;;;11.25;10.15;;;;;;;;;;10487208;28;20248;-70
2022/08/19 00:18:14;;;;;;;11.25;10.10;;;;;;;;;;10480101;28;20323;-72
2022/08/19 00:23:15;;;;;;;12.38;10.27;;;;;;;;;;10447242;28;20348;-70
2022/08/19 00:28:17;;;;;;;11.23;10.05;;;;;;;;;;10457912;28;20206;-72
2022/08/19 00:33:18;;;;;;;11.80;10.40;;;;;;;;;;10460519;28;21018;-72
2022/08/19 00:38:22;;;;;;;10.93;9.90;;;;;;;;;;10473920;28;20697;-72
2022/08/19 00:43:24;;;;;;;10.98;9.95;;;;;;;;;;10473201;28;20217;-73
2022/08/19 00:48:25;;;;;;;12.40;10.73;;;;;;;;;;10469608;28;20218;-74
2022/08/19 00:53:27;;;;;;;12.30;10.73;;;;;;;;;;10450717;28;20266;-73
2022/08/19 00:58:30;;;;;;;13.45;11.80;;;;;;;;;;10482986;28;20839;-72
2022/08/19 01:03:31;;;;;;;11.93;10.68;;;;;;;;;;10491435;28;20243;-73
2022/08/19 01:08:32;;;;;;;14.02;11.15;;;;;;;;;;10479414;28;20812;-73
2022/08/19 01:13:34;;;;;;;13.93;11.13;;;;;;;;;;10477791;28;21353;-73
2022/08/19 01:18:40;;;;;;;14.13;11.15;;;;;;;;;;10462849;28;20225;-73
2022/08/19 01:23:44;;;;;;;12.95;10.73;;;;;;;;;;10477058;28;20305;-73
2022/08/19 01:28:47;;;;;;;12.88;11.02;;;;;;;;;;10483314;28;20259;-73
2022/08/19 01:33:50;;;;;;;13.15;11.70;;;;;;;;;;10484089;28;20252;-73
2022/08/19 01:38:51;;;;;;;12.60;11.07;;;;;;;;;;10480956;28;20218;-73
2022/08/19 01:43:52;;;;;;;12.10;10.63;;;;;;;;;;10473519;28;20210;-72
2022/08/19 01:48:53;;;;;;;12.43;11.15;;;;;;;;;;10479318;28;20270;-72
2022/08/19 01:53:54;;;;;;;12.38;10.57;;;;;;;;;;10472370;28;20275;-71
2022/08/19 01:58:58;;;;;;;12.77;10.90;;;;;;;;;;10474378;28;20616;-72
2022/08/19 02:04:00;;;;;;;11.45;10.35;;;;;;;;;;10482007;28;20230;-72
2022/08/19 02:09:02;;;;;;;14.60;11.10;;;;;;;;;;10490187;28;20255;-72
2022/08/19 02:14:05;;;;;;;11.35;10.20;;;;;;;;;;10466522;28;20308;-71
2022/08/19 02:19:07;;;;;;;11.10;9.98;;;;;;;;;;10460187;28;20304;-72
2022/08/19 02:24:08;;;;;;;12.02;10.73;;;;;;;;;;10495018;28;20222;-72
2022/08/19 02:29:09;;;;;;;12.55;10.98;;;;;;;;;;10485861;28;20247;-71
2022/08/19 02:34:10;;;;;;;11.60;10.05;;;;;;;;;;10459700;28;20210;-72
2022/08/19 02:39:11;;;;;;;11.63;10.48;;;;;;;;;;10488049;28;20210;-71
2022/08/19 02:44:12;;;;;;;12.30;10.75;;;;;;;;;;10487944;28;20223;-72
2022/08/19 02:49:16;;;;;;;12.32;10.98;;;;;;;;;;10489866;28;20217;-72
2022/08/19 02:54:17;;;;;;;12.20;10.88;;;;;;;;;;10455227;28;20244;-72
2022/08/19 02:59:18;;;;;;;11.35;10.15;;;;;;;;;;10484800;28;20218;-72
2022/08/19 03:04:19;;;;;;;12.43;11.07;;;;;;;;;;10490840;28;20230;-72
2022/08/19 03:09:20;;;;;;;13.50;11.23;;;;;;;;;;10451437;28;20252;-71
2022/08/19 03:14:22;;;;;;;16.80;11.45;;;;;;;;;;10477434;28;20214;-71
2022/08/19 03:19:24;;;;;;;15.93;11.90;;;;;;;;;;10452794;28;20301;-71
2022/08/19 03:24:25;;;;;;;11.15;9.75;;;;;;;;;;10479232;28;20256;-72
2022/08/19 03:29:28;;;;;;;11.65;9.80;;;;;;;;;;10454830;28;20860;-73
2022/08/19 03:34:30;;;;;;;11.80;9.90;;;;;;;;;;10477755;28;20218;-72
2022/08/19 03:39:31;;;;;;;13.65;11.05;;;;;;;;;;10479551;28;20201;-72
2022/08/19 03:44:33;;;;;;;15.43;11.70;;;;;;;;;;10479552;28;20229;-72
2022/08/19 03:49:35;;;;;;;13.68;10.30;;;;;;;;;;10479930;28;20220;-72
2022/08/19 03:54:37;;;;;;;14.27;11.60;;;;;;;;;;10486122;28;20218;-72
2022/08/19 03:59:39;;;;;;;16.65;11.95;;;;;;;;;;10472051;28;20221;-72
2022/08/19 04:04:42;;;;;;;14.90;11.38;;;;;;;;;;10466954;28;20237;-72
2022/08/19 04:09:44;;;;;;;13.25;11.18;;;;;;;;;;10467559;28;20221;-72
2022/08/19 04:14:45;;;;;;;12.43;10.27;;;;;;;;;;10475740;28;20307;-74
2022/08/19 04:19:46;;;;;;;12.27;10.57;;;;;;;;;;10456274;28;20217;-73
2022/08/19 04:24:47;;;;;;;12.10;10.23;;;;;;;;;;10481305;28;20221;-71
2022/08/19 04:29:48;;;;;;;12.75;10.68;;;;;;;;;;10476459;28;20209;-72
2022/08/19 04:34:49;;;;;;;14.55;10.73;;;;;;;;;;10482201;28;20264;-72
2022/08/19 04:45:13;;;;;;;13.80;10.40;;;;;;;;;;10482622;28;20225;-70
2022/08/19 04:50:15;;;;;;;12.63;10.32;;;;;;;;;;10464346;28;20198;-71
2022/08/19 04:55:20;;;;;;;13.07;10.68;;;;;;;;;;10479091;28;20328;-71
2022/08/19 05:00:21;;;;;;;13.48;10.00;;;;;;;;;;10478952;28;20194;-72
2022/08/19 05:05:22;;;;;;;12.50;10.48;;;;;;;;;;10483359;28;20227;-72
2022/08/19 05:10:23;;;;;;;13.20;9.50;;;;;;;;;;10476241;28;20574;-72
2022/08/19 05:15:24;;;;;;;13.18;9.43;;;;;;;;;;10479155;28;20248;-73
2022/08/19 05:25:45;;;;;;;10.93;9.20;;;;;;;;;;10480841;28;20279;-72
2022/08/19 05:30:47;;;;;;;13.35;9.00;;;;;;;;;;10484124;28;20217;-73
2022/08/19 05:35:49;;;;;;;11.55;8.88;;;;;;;;;;10467425;28;20217;-72
2022/08/19 05:40:50;;;;;;;10.32;8.18;;;;;;;;;;10483301;28;20254;-72
2022/08/19 05:45:51;;;;;;;10.57;9.00;;;;;;;;;;10479775;28;20292;-72
2022/08/19 05:50:52;;;;;;;8.43;7.63;;;;;;;;;;10483578;28;20225;-71
2022/08/19 05:55:53;;;;;;;9.15;8.25;;;;;;;;;;10483042;28;20768;-72
2022/08/19 06:00:54;;;;;;;9.13;8.32;;;;;;;;;;10481023;28;20206;-71
2022/08/19 06:05:55;;;;;;;10.57;8.27;;;;;;;;;;10490544;28;20261;-71
2022/08/19 06:10:56;;;;;;;10.88;8.73;;;;;;;;;;10501787;28;20225;-71
2022/08/19 06:15:57;;;;;;;9.32;7.90;;;;;;;;;;10488333;28;20672;-71
2022/08/19 06:20:59;;;;;;;9.10;8.20;;;;;;;;;;10455933;28;20813;-71
2022/08/19 06:26:00;;;;;;;9.68;7.70;;;;;;;;;;10458707;28;20228;-71
2022/08/19 06:31:06;;;;;;;9.27;8.25;;;;;;;;;;10496653;28;20248;-71
2022/08/19 06:36:08;;;;;;;8.30;7.50;;;;;;;;;;10485029;28;20209;-71
2022/08/19 06:41:09;;;;;;;9.07;8.18;;;;;;;;;;10464807;28;20217;-71
2022/08/19 06:46:12;;;;;;;10.23;8.30;;;;;;;;;;10499952;28;20237;-71
2022/08/19 06:51:20;;;;;;;8.98;7.82;;;;;;;;;;10475616;28;20829;-71
2022/08/19 06:56:24;;;;;;;9.40;8.45;;;;;;;;;;10487729;28;22259;-71
2022/08/19 07:01:25;;;;;;;11.40;9.60;;;;;;;;;;10492014;28;20656;-70
2022/08/19 07:06:26;;;;;;;11.73;8.30;;;;;;;;;;10454702;28;20387;-69
2022/08/19 07:11:28;;;;;;;9.30;8.25;;;;;;;;;;10459292;28;20221;-70
2022/08/19 07:16:29;;;;;;;14.35;9.43;;;;;;;;;;10480771;28;20214;-71
2022/08/19 07:21:30;;;;;;;10.68;9.23;;;;;;;;;;10483276;28;20846;-71
2022/08/19 07:26:38;;;;;;;12.73;9.65;;;;;;;;;;10485029;28;20235;-73
2022/08/19 07:31:39;;;;;;;13.05;10.25;;;;;;;;;;10482478;28;20222;-71
2022/08/19 07:36:41;;;;;;;11.82;10.02;;;;;;;;;;10479344;28;20218;-71
2022/08/19 07:41:43;;;;;;;14.35;11.63;;;;;;;;;;10483635;28;20276;-71
2022/08/19 07:46:46;;;;;;;14.48;10.68;;;;;;;;;;10483808;28;20222;-71
2022/08/19 07:51:48;;;;;;;14.38;10.82;;;;;;;;;;10485482;28;20636;-71
2022/08/19 07:56:50;;;;;;;13.63;10.13;;;;;;;;;;10481633;28;20284;-70
2022/08/19 08:01:52;;;;;;;14.65;10.77;;;;;;;;;;10481092;28;20209;-70
2022/08/19 08:12:14;;;;;;;10.10;8.88;;;;;;;;;;10462195;28;20226;-70
2022/08/19 08:17:16;;;;;;;13.05;8.55;;;;;;;;;;10489048;28;20308;-71
2022/08/19 08:27:40;;;;;;;11.32;8.48;;;;;;;;;;10497879;28;20217;-68
2022/08/19 08:32:42;;;;;;;8.70;7.82;;;;;;;;;;10461110;28;20931;-71
2022/08/19 08:37:44;;;;;;;8.02;7.25;;;;;;;;;;10484005;28;20220;-70
2022/08/19 08:42:51;;;;;;;6.97;6.38;;;;;;;;;;10489588;28;20224;-70
2022/08/19 08:47:54;;;;;;;7.57;6.72;;;;;;;;;;10492456;28;20213;-71
2022/08/19 08:52:57;;;;;;;8.75;6.38;;;;;;;;;;10450990;28;20733;-70
2022/08/19 08:58:06;;;;;;;8.25;6.90;;;;;;;;;;10482004;28;20242;-72
2022/08/19 09:03:17;;;;;;;5.90;5.43;;;;;;;;;;10482576;28;20252;-69
2022/08/19 09:08:37;;;;;;;7.55;6.85;;;;;;;;;;10488682;28;20217;-70
2022/08/19 09:14:02;;;;;;;6.78;5.85;;;;;;;;;;10461939;28;20210;-70
2022/08/19 09:19:05;;;;;;;10.60;6.90;;;;;;;;;;10462441;28;20229;-70
2022/08/19 09:24:06;;;;;;;6.05;5.45;;;;;;;;;;10486058;28;20255;-70
2022/08/19 09:29:07;;;;;;;7.75;6.38;;;;;;;;;;10491472;28;20724;-72
2022/08/19 09:34:08;;;;;;;8.13;6.38;;;;;;;;;;10492896;28;20295;-67
2022/08/19 09:39:09;;;;;;;7.78;6.35;;;;;;;;;;10457345;28;20708;-71
2022/08/19 09:44:12;;;;;;;7.05;6.43;;;;;;;;;;10483049;28;20348;-71
2022/08/19 09:49:14;;;;;;;9.55;6.82;;;;;;;;;;10465473;28;20224;-70
2022/08/19 09:54:15;;;;;;;7.40;6.20;;;;;;;;;;10484362;28;20218;-71
2022/08/19 09:59:16;;;;;;;6.85;6.18;;;;;;;;;;10483784;28;20214;-72
2022/08/19 10:04:17;;;;;;;7.07;6.20;;;;;;;;;;10483970;28;20226;-71
2022/08/19 10:09:18;;;;;;;6.90;6.18;;;;;;;;;;10458835;28;20218;-72
2022/08/19 10:14:22;;;;;;;7.95;6.88;;;;;;;;;;10465058;28;20212;-71
2022/08/19 10:19:23;;;;;;;7.03;6.30;;;;;;;;;;10486807;28;20217;-71
2022/08/19 10:24:27;;;;;;;7.65;6.63;;;;;;;;;;10492051;28;21164;-73
2022/08/19 10:29:28;;;;;;;6.10;5.60;;;;;;;;;;10492100;28;20212;-70
2022/08/19 10:34:30;;;;;;;6.65;6.05;;;;;;;;;;10486799;28;20718;-70
2022/08/19 10:39:35;;;;;;;6.18;5.78;;;;;;;;;;10459215;28;20213;-71
2022/08/19 10:44:36;;;;;;;7.07;6.45;;;;;;;;;;10484530;28;20271;-69
2022/08/19 10:52:33;;;;;;;7.20;6.50;;;;;;;;;;10480981;28;20206;-72
2022/08/19 11:00:18;;;;;;;6.57;6.00;;;;;;;;;;10470120;28;20218;-71
2022/08/19 11:05:19;;;;;;;6.43;5.82;;;;;;;;;;10479202;28;20814;-72
2022/08/19 11:10:20;;;;;;;6.53;5.88;;;;;;;;;;10470146;28;20198;-72
2022/08/19 11:15:21;;;;;;;6.53;5.95;;;;;;;;;;10476843;28;20190;-71
2022/08/19 11:20:23;;;;;;;7.50;6.45;;;;;;;;;;10481443;28;20228;-71
2022/08/19 11:25:24;;;;;;;6.13;5.65;;;;;;;;;;10483229;28;20259;-70
2022/08/19 11:30:25;;;;;;;5.45;4.97;;;;;;;;;;10494732;28;20205;-69
2022/08/19 11:35:26;;;;;;;6.05;5.57;;;;;;;;;;10483755;28;20190;-70
2022/08/19 11:40:27;;;;;;;5.72;5.22;;;;;;;;;;10481727;28;20226;-71
2022/08/19 11:45:28;;;;;;;6.40;5.90;;;;;;;;;;10485785;28;20237;-70
2022/08/19 11:50:30;;;;;;;5.97;5.32;;;;;;;;;;10484943;28;20210;-71
2022/08/19 11:55:31;;;;;;;5.25;4.97;;;;;;;;;;10482071;28;20206;-71
2022/08/19 12:00:33;;;;;;;6.22;5.55;;;;;;;;;;10479933;28;20210;-71
2022/08/19 12:05:36;;;;;;;5.10;4.63;;;;;;;;;;10480661;28;20703;-71
2022/08/19 12:10:37;;;;;;;4.90;4.63;;;;;;;;;;10482668;28;20253;-71
2022/08/19 12:15:40;;;;;;;5.43;5.00;;;;;;;;;;10477842;28;20247;-71
2022/08/19 12:20:42;;;;;;;4.18;4.07;;;;;;;;;;10449873;28;20333;-73
2022/08/19 12:25:51;;;;;;;4.15;3.95;;;;;;;;;;10475272;28;20221;-72
2022/08/19 12:30:52;;;;;;;4.68;4.47;;;;;;;;;;10478580;28;20213;-71
2022/08/19 12:35:53;;;;;;;4.30;4.10;;;;;;;;;;10451288;28;20208;-73
2022/08/19 12:40:55;;;;;;;3.97;3.78;;;;;;;;;;10481611;28;20218;-72
2022/08/19 12:45:56;;;;;;;3.92;3.72;;;;;;;;;;10479083;28;20267;-72
2022/08/19 12:50:57;;;;;;;4.35;4.15;;;;;;;;;;10465348;28;20225;-72
2022/08/19 12:55:59;;;;;;;4.20;3.90;;;;;;;;;;10465345;28;20182;-72
2022/08/19 13:01:06;;;;;;;3.47;3.38;;;;;;;;;;10468406;28;20966;-72
2022/08/19 13:06:08;;;;;;;3.58;3.38;;;;;;;;;;10492821;28;20785;-72
2022/08/19 13:11:13;;;;;;;3.50;3.40;;;;;;;;;;10453546;28;20371;-72
2022/08/19 13:16:15;;;;;;;4.03;3.90;;;;;;;;;;10485896;28;20214;-73
2022/08/19 13:21:16;;;;;;;4.88;4.55;;;;;;;;;;10479735;28;20343;-71
2022/08/19 13:26:18;;;;;;;4.18;3.88;;;;;;;;;;10454680;28;20221;-72
2022/08/19 13:36:39;;;;;;;3.60;3.50;;;;;;;;;;10496763;28;20685;-74
2022/08/19 13:41:45;;;;;;;3.60;3.50;;;;;;;;;;10486920;28;20605;-73
2022/08/19 13:46:48;;;;;;;3.83;3.72;;;;;;;;;;10492491;28;20214;-73
2022/08/19 13:51:49;;;;;;;3.88;3.75;;;;;;;;;;10489753;28;20221;-72
2022/08/19 13:56:50;;;;;;;3.72;3.47;;;;;;;;;;10468624;28;20217;-71
2022/08/19 14:01:51;;;;;;;3.28;3.17;;;;;;;;;;10490583;28;20224;-73
2022/08/19 14:06:52;;;;;;;3.92;3.72;;;;;;;;;;10468773;28;20233;-73
2022/08/19 14:11:53;;;;;;;4.05;3.85;;;;;;;;;;10461998;28;20212;-72
2022/08/19 14:16:54;;;;;;;3.65;3.40;;;;;;;;;;10462850;28;20313;-72
2022/08/19 14:21:57;;;;;;;3.85;3.70;;;;;;;;;;10488845;28;20314;-72
2022/08/19 14:26:58;;;;;;;3.50;3.30;;;;;;;;;;10461307;28;20241;-73
2022/08/19 14:31:59;;;;;;;3.30;3.20;;;;;;;;;;10487650;28;20217;-73
2022/08/19 14:37:01;;;;;;;4.13;3.90;;;;;;;;;;10492280;28;20267;-72
2022/08/19 14:42:02;;;;;;;3.50;3.40;;;;;;;;;;10465564;28;20214;-72
2022/08/19 14:47:03;;;;;;;3.35;3.15;;;;;;;;;;10494193;28;20249;-73
2022/08/19 14:52:04;;;;;;;3.10;3.00;;;;;;;;;;10489237;28;20217;-73
2022/08/19 14:57:05;;;;;;;2.53;2.53;;;;;;;;;;10493245;28;20351;-72
2022/08/19 15:02:06;;;;;;;2.63;2.53;;;;;;;;;;10496821;28;20214;-72
2022/08/19 15:07:07;;;;;;;3.28;3.17;;;;;;;;;;10491908;28;20230;-72
2022/08/19 15:12:10;;;;;;;3.05;2.95;;;;;;;;;;10497237;28;20296;-71
2022/08/19 15:17:11;;;;;;;2.50;2.40;;;;;;;;;;10475032;28;20210;-72
2022/08/19 15:22:13;;;;;;;3.05;2.95;;;;;;;;;;10496315;28;20214;-73
2022/08/19 15:27:14;;;;;;;3.30;3.20;;;;;;;;;;10495416;28;20248;-72
2022/08/19 15:32:15;;;;;;;3.25;3.05;;;;;;;;;;10497612;28;20218;-72
2022/08/19 15:37:16;;;;;;;2.90;2.83;;;;;;;;;;10482543;28;20205;-73
2022/08/19 15:42:19;;;;;;;3.17;3.08;;;;;;;;;;10497111;28;20214;-72
2022/08/19 15:47:20;;;;;;;3.15;3.03;;;;;;;;;;10491687;28;20224;-73
2022/08/19 15:52:21;;;;;;;3.17;3.08;;;;;;;;;;10476399;28;20212;-73
2022/08/19 16:07:47;;;;;;;2.67;2.58;;;;;;;;;;10497329;28;20236;-73
2022/08/19 16:12:48;;;;;;;2.60;2.50;;;;;;;;;;10495911;28;20572;-73
2022/08/19 16:17:49;;;;;;;2.95;2.85;;;;;;;;;;10493740;28;20328;-73
2022/08/19 16:22:51;;;;;;;4.13;3.30;;;;;;;;;;10440147;28;20225;-72
2022/08/19 16:27:53;;;;;;;2.40;2.30;;;;;;;;;;10454291;28;20309;-72
2022/08/19 16:32:54;;;;;;;2.70;2.58;;;;;;;;;;10485117;28;20625;-73
2022/08/19 16:37:55;;;;;;;2.47;2.47;;;;;;;;;;10483883;28;20240;-72
2022/08/19 16:42:56;;;;;;;2.35;2.25;;;;;;;;;;10491747;28;20225;-72
2022/08/19 16:47:57;;;;;;;2.15;2.15;;;;;;;;;;10480400;28;20213;-71
2022/08/19 16:52:58;;;;;;;2.50;2.30;;;;;;;;;;10499630;28;20649;-70
2022/08/19 16:58:03;;;;;;;2.78;2.67;;;;;;;;;;10496774;28;20346;-71
2022/08/19 17:03:05;;;;;;;3.75;3.45;;;;;;;;;;10493703;28;20237;-71
2022/08/19 17:08:07;;;;;;;4.25;3.90;;;;;;;;;;10479210;28;20685;-72
2022/08/19 17:13:08;;;;;;;3.90;3.80;;;;;;;;;;10470141;28;20285;-71
2022/08/19 17:18:10;;;;;;;4.10;3.80;;;;;;;;;;10497498;28;20287;-71
2022/08/19 17:23:11;;;;;;;3.75;3.63;;;;;;;;;;10473671;28;20653;-71
2022/08/19 17:28:14;;;;;;;4.68;4.38;;;;;;;;;;10492714;28;20600;-71
2022/08/19 17:33:16;;;;;;;3.80;3.60;;;;;;;;;;10496188;28;20309;-70
2022/08/19 17:38:18;;;;;;;3.10;3.00;;;;;;;;;;10448894;28;20312;-71
2022/08/19 17:43:19;;;;;;;3.10;3.00;;;;;;;;;;10461999;28;20218;-71
2022/08/19 17:48:22;;;;;;;3.22;3.13;;;;;;;;;;10495704;28;20224;-71
2022/08/19 17:53:25;;;;;;;2.92;2.78;;;;;;;;;;10491018;28;20221;-68
2022/08/19 17:58:26;;;;;;;3.15;3.08;;;;;;;;;;10485253;28;20657;-71
2022/08/19 18:03:29;;;;;;;3.00;2.90;;;;;;;;;;10468926;28;20240;-70
2022/08/19 18:08:30;;;;;;;3.47;3.38;;;;;;;;;;10465937;28;20229;-79
2022/08/19 18:13:31;;;;;;;3.30;3.15;;;;;;;;;;10490856;28;20725;-70
2022/08/19 18:18:32;;;;;;;3.75;3.65;;;;;;;;;;10487512;28;20693;-68
2022/08/19 18:23:33;;;;;;;4.07;3.88;;;;;;;;;;10482547;28;20209;-72
2022/08/19 18:28:34;;;;;;;3.40;3.33;;;;;;;;;;10494732;28;20218;-72
2022/08/19 18:33:35;;;;;;;3.40;3.30;;;;;;;;;;10495919;28;20225;-74
2022/08/19 18:49:19;;;;;;;3.60;3.40;;;;;;;;;;10491048;28;20812;-69
2022/08/19 18:54:20;;;;;;;4.53;4.22;;;;;;;;;;10493323;28;20550;-72
2022/08/19 18:59:25;;;;;;;4.60;4.30;;;;;;;;;;10492777;28;20246;-69
2022/08/19 19:04:28;;;;;;;4.82;4.35;;;;;;;;;;10485184;28;20237;-70
2022/08/19 19:09:29;;;;;;;3.97;3.83;;;;;;;;;;10488902;28;20600;-71
2022/08/19 19:14:33;;;;;;;3.70;3.50;;;;;;;;;;10488392;28;20217;-69
2022/08/19 19:19:34;;;;;;;4.07;3.88;;;;;;;;;;10487931;28;20228;-71
2022/08/19 19:24:36;;;;;;;5.38;4.82;;;;;;;;;;10472436;28;20221;-70
2022/08/19 19:29:37;;;;;;;5.22;4.88;;;;;;;;;;10487270;28;20208;-72
2022/08/19 19:34:39;;;;;;;4.75;4.35;;;;;;;;;;10494061;28;20635;-68
2022/08/19 19:39:40;;;;;;;5.53;5.03;;;;;;;;;;10489585;28;20267;-71
2022/08/19 19:44:41;;;;;;;4.05;3.85;;;;;;;;;;10465199;28;20286;-73
2022/08/19 19:49:42;;;;;;;5.03;4.72;;;;;;;;;;10490445;28;20241;-69
2022/08/19 19:54:45;;;;;;;3.92;3.75;;;;;;;;;;10482797;28;20224;-71
2022/08/19 19:59:46;;;;;;;4.05;3.75;;;;;;;;;;10485467;28;20750;-71
2022/08/19 20:04:47;;;;;;;4.72;4.45;;;;;;;;;;10483901;28;20221;-71
2022/08/19 20:09:48;;;;;;;4.95;4.65;;;;;;;;;;10496082;28;20271;-71
2022/08/19 20:14:49;;;;;;;4.80;4.40;;;;;;;;;;10491386;28;20214;-69
2022/08/19 20:19:50;;;;;;;4.63;4.20;;;;;;;;;;10493812;28;20254;-70
2022/08/19 20:24:54;;;;;;;4.93;4.53;;;;;;;;;;10464494;28;20252;-70
2022/08/19 20:29:55;;;;;;;4.65;4.45;;;;;;;;;;10485466;28;20259;-70
2022/08/19 20:34:59;;;;;;;5.07;4.68;;;;;;;;;;10491187;28;20209;-70
2022/08/19 20:40:01;;;;;;;4.88;4.57;;;;;;;;;;10498897;28;20275;-70
2022/08/19 20:45:06;;;;;;;5.32;4.93;;;;;;;;;;10461794;28;20348;-69
2022/08/19 20:50:08;;;;;;;5.05;4.70;;;;;;;;;;10494970;28;20301;-70
2022/08/19 20:55:09;;;;;;;5.70;5.30;;;;;;;;;;10497629;28;20720;-70
2022/08/19 21:00:11;;;;;;;5.68;5.22;;;;;;;;;;10496333;28;20197;-70
2022/08/19 21:05:13;;;;;;;6.05;5.38;;;;;;;;;;10472155;28;20308;-69
2022/08/19 21:10:15;;;;;;;6.70;6.03;;;;;;;;;;10493066;28;20312;-69
2022/08/19 21:15:16;;;;;;;5.55;5.13;;;;;;;;;;10487978;28;20205;-69
2022/08/19 21:20:18;;;;;;;6.43;5.93;;;;;;;;;;10492863;28;20248;-70
2022/08/19 21:25:19;;;;;;;6.15;5.60;;;;;;;;;;10463691;28;20210;-70
2022/08/19 21:30:20;;;;;;;5.97;5.47;;;;;;;;;;10498149;28;20174;-69
2022/08/19 21:35:22;;;;;;;5.75;5.25;;;;;;;;;;10497381;28;20184;-69
2022/08/19 21:40:24;;;;;;;6.40;5.90;;;;;;;;;;10499984;28;20180;-70
2022/08/19 21:45:25;;;;;;;9.40;6.75;;;;;;;;;;10500827;28;20278;-68
2022/08/19 21:50:26;;;;;;;7.13;6.53;;;;;;;;;;10471050;28;20225;-69
2022/08/19 21:55:28;;;;;;;6.10;5.55;;;;;;;;;;10500748;28;20213;-69
2022/08/19 22:00:30;;;;;;;5.47;5.13;;;;;;;;;;10495092;28;20217;-69
2022/08/19 22:05:32;;;;;;;8.07;7.22;;;;;;;;;;10496759;28;20780;-69
2022/08/19 22:10:36;;;;;;;5.90;5.45;;;;;;;;;;10481218;28;20222;-69
2022/08/19 22:15:37;;;;;;;6.22;5.68;;;;;;;;;;10470669;28;20249;-70
2022/08/19 22:20:38;;;;;;;6.70;6.13;;;;;;;;;;10495443;28;20213;-69
2022/08/19 22:25:40;;;;;;;6.55;5.95;;;;;;;;;;10471131;28;20230;-70
2022/08/19 22:30:42;;;;;;;6.65;6.15;;;;;;;;;;10501362;28;20210;-69
2022/08/19 22:35:44;;;;;;;6.22;5.63;;;;;;;;;;10494277;28;20225;-69
2022/08/19 22:40:46;;;;;;;7.07;6.47;;;;;;;;;;10466167;28;20225;-70
2022/08/19 22:45:48;;;;;;;7.25;6.63;;;;;;;;;;10481396;28;20283;-70
2022/08/19 22:56:10;;;;;;;8.55;6.82;;;;;;;;;;10496870;28;20697;-70
2022/08/19 23:01:13;;;;;;;6.57;6.00;;;;;;;;;;10500623;28;20221;-70
2022/08/19 23:06:14;;;;;;;7.55;6.65;;;;;;;;;;10496436;28;20701;-70
2022/08/19 23:11:15;;;;;;;8.02;6.97;;;;;;;;;;10494869;28;20214;-69
2022/08/19 23:16:16;;;;;;;9.45;7.57;;;;;;;;;;10498738;28;21107;-69
2022/08/19 23:21:17;;;;;;;9.90;7.63;;;;;;;;;;10494479;28;20221;-69
2022/08/19 23:26:19;;;;;;;6.93;6.32;;;;;;;;;;10463209;28;20254;-69
2022/08/19 23:31:20;;;;;;;7.53;6.68;;;;;;;;;;10467233;28;20589;-70
2022/08/19 23:36:22;;;;;;;7.85;7.05;;;;;;;;;;10490424;28;20696;-69
2022/08/19 23:41:25;;;;;;;7.03;6.43;;;;;;;;;;10495367;28;20222;-69
2022/08/19 23:46:27;;;;;;;7.95;7.10;;;;;;;;;;10489520;28;20217;-70
2022/08/19 23:51:28;;;;;;;9.05;7.18;;;;;;;;;;10488912;28;20226;-69
2022/08/19 23:56:29;;;;;;;11.25;7.90;;;;;;;;;;10456535;28;20268;-70
